sensor_id;sensor_type;location;lat;lon;timestamp;P1;durP1;ratioP1;P2;durP2;ratioP2
22186;SDS011;11259;52.146;12.844;2023-07-30T00:00:34;1.30;;;1.20;;
22186;SDS011;11259;52.146;12.844;2023-07-30T00:03:00;1.15;;;1.05;;
22186;SDS011;11259;52.146;12.844;2023-07-30T00:05:25;1.10;;;1.05;;
22186;SDS011;11259;52.146;12.844;2023-07-30T00:07:50;1.58;;;1.48;;
22186;SDS011;11259;52.146;12.844;2023-07-30T00:10:16;1.40;;;1.30;;
22186;SDS011;11259;52.146;12.844;2023-07-30T00:12:41;1.35;;;1.25;;
22186;SDS011;11259;52.146;12.844;2023-07-30T00:15:06;2.22;;;1.27;;
22186;SDS011;11259;52.146;12.844;2023-07-30T00:17:34;1.23;;;1.08;;
22186;SDS011;11259;52.146;12.844;2023-07-30T00:19:59;1.38;;;1.27;;
22186;SDS011;11259;52.146;12.844;2023-07-30T00:22:24;1.23;;;1.13;;
22186;SDS011;11259;52.146;12.844;2023-07-30T00:24:50;1.30;;;1.13;;
22186;SDS011;11259;52.146;12.844;2023-07-30T00:27:15;3.53;;;1.35;;
22186;SDS011;11259;52.146;12.844;2023-07-30T00:29:40;1.63;;;1.33;;
22186;SDS011;11259;52.146;12.844;2023-07-30T00:32:06;1.27;;;1.15;;
22186;SDS011;11259;52.146;12.844;2023-07-30T00:34:33;1.33;;;1.08;;
22186;SDS011;11259;52.146;12.844;2023-07-30T00:36:58;1.10;;;1.00;;
22186;SDS011;11259;52.146;12.844;2023-07-30T00:39:23;1.58;;;1.17;;
22186;SDS011;11259;52.146;12.844;2023-07-30T00:41:49;3.35;;;1.55;;
22186;SDS011;11259;52.146;12.844;2023-07-30T00:44:14;1.83;;;1.40;;
22186;SDS011;11259;52.146;12.844;2023-07-30T00:46:39;1.17;;;1.08;;
22186;SDS011;11259;52.146;12.844;2023-07-30T00:49:05;1.50;;;1.40;;
22186;SDS011;11259;52.146;12.844;2023-07-30T00:51:32;1.85;;;1.30;;
22186;SDS011;11259;52.146;12.844;2023-07-30T00:53:58;1.63;;;1.40;;
22186;SDS011;11259;52.146;12.844;2023-07-30T00:56:23;2.20;;;1.10;;
22186;SDS011;11259;52.146;12.844;2023-07-30T00:58:49;1.73;;;1.63;;
22186;SDS011;11259;52.146;12.844;2023-07-30T01:01:14;1.77;;;1.67;;
22186;SDS011;11259;52.146;12.844;2023-07-30T01:03:40;1.35;;;1.25;;
22186;SDS011;11259;52.146;12.844;2023-07-30T01:06:05;2.15;;;1.95;;
22186;SDS011;11259;52.146;12.844;2023-07-30T01:08:32;1.20;;;1.10;;
22186;SDS011;11259;52.146;12.844;2023-07-30T01:10:57;1.42;;;1.33;;
22186;SDS011;11259;52.146;12.844;2023-07-30T01:13:23;2.15;;;1.63;;
22186;SDS011;11259;52.146;12.844;2023-07-30T01:15:48;1.20;;;1.10;;
22186;SDS011;11259;52.146;12.844;2023-07-30T01:18:14;1.50;;;1.40;;
22186;SDS011;11259;52.146;12.844;2023-07-30T01:20:39;3.03;;;2.25;;
22186;SDS011;11259;52.146;12.844;2023-07-30T01:23:06;2.33;;;1.65;;
22186;SDS011;11259;52.146;12.844;2023-07-30T01:25:33;1.85;;;1.50;;
22186;SDS011;11259;52.146;12.844;2023-07-30T01:28:01;1.58;;;1.48;;
22186;SDS011;11259;52.146;12.844;2023-07-30T01:30:27;1.77;;;1.50;;
22186;SDS011;11259;52.146;12.844;2023-07-30T01:32:54;1.40;;;1.30;;
22186;SDS011;11259;52.146;12.844;2023-07-30T01:35:20;0.95;;;0.95;;
22186;SDS011;11259;52.146;12.844;2023-07-30T01:37:46;1.27;;;1.17;;
22186;SDS011;11259;52.146;12.844;2023-07-30T01:40:13;1.55;;;1.45;;
22186;SDS011;11259;52.146;12.844;2023-07-30T01:42:39;2.05;;;1.48;;
22186;SDS011;11259;52.146;12.844;2023-07-30T01:45:05;1.50;;;1.40;;
22186;SDS011;11259;52.146;12.844;2023-07-30T01:47:31;1.90;;;1.60;;
22186;SDS011;11259;52.146;12.844;2023-07-30T01:49:56;1.92;;;1.40;;
22186;SDS011;11259;52.146;12.844;2023-07-30T01:52:21;1.95;;;0.95;;
22186;SDS011;11259;52.146;12.844;2023-07-30T01:54:47;2.13;;;1.70;;
22186;SDS011;11259;52.146;12.844;2023-07-30T01:57:13;1.40;;;1.30;;
22186;SDS011;11259;52.146;12.844;2023-07-30T01:59:39;1.30;;;1.20;;
22186;SDS011;11259;52.146;12.844;2023-07-30T02:02:04;1.58;;;1.33;;
22186;SDS011;11259;52.146;12.844;2023-07-30T02:04:29;2.20;;;2.00;;
22186;SDS011;11259;52.146;12.844;2023-07-30T02:06:55;1.38;;;1.27;;
22186;SDS011;11259;52.146;12.844;2023-07-30T02:09:20;1.45;;;1.35;;
22186;SDS011;11259;52.146;12.844;2023-07-30T02:11:45;1.63;;;1.52;;
22186;SDS011;11259;52.146;12.844;2023-07-30T02:14:12;1.35;;;1.25;;
22186;SDS011;11259;52.146;12.844;2023-07-30T02:16:37;1.80;;;1.70;;
22186;SDS011;11259;52.146;12.844;2023-07-30T02:19:03;1.73;;;1.38;;
22186;SDS011;11259;52.146;12.844;2023-07-30T02:21:28;1.38;;;1.27;;
22186;SDS011;11259;52.146;12.844;2023-07-30T02:23:53;1.40;;;1.30;;
22186;SDS011;11259;52.146;12.844;2023-07-30T02:26:19;2.53;;;1.27;;
22186;SDS011;11259;52.146;12.844;2023-07-30T02:28:44;3.70;;;1.65;;
22186;SDS011;11259;52.146;12.844;2023-07-30T02:31:11;1.60;;;1.50;;
22186;SDS011;11259;52.146;12.844;2023-07-30T02:33:36;1.63;;;1.52;;
22186;SDS011;11259;52.146;12.844;2023-07-30T02:36:01;1.52;;;1.42;;
22186;SDS011;11259;52.146;12.844;2023-07-30T02:38:28;1.90;;;1.55;;
22186;SDS011;11259;52.146;12.844;2023-07-30T02:40:53;1.20;;;1.10;;
22186;SDS011;11259;52.146;12.844;2023-07-30T02:43:18;1.75;;;1.65;;
22186;SDS011;11259;52.146;12.844;2023-07-30T02:45:46;2.22;;;1.33;;
22186;SDS011;11259;52.146;12.844;2023-07-30T02:48:13;1.85;;;1.58;;
22186;SDS011;11259;52.146;12.844;2023-07-30T02:50:38;1.08;;;1.00;;
22186;SDS011;11259;52.146;12.844;2023-07-30T02:53:04;1.50;;;1.40;;
22186;SDS011;11259;52.146;12.844;2023-07-30T02:55:29;2.08;;;1.23;;
22186;SDS011;11259;52.146;12.844;2023-07-30T02:57:54;1.67;;;1.33;;
22186;SDS011;11259;52.146;12.844;2023-07-30T03:00:20;1.65;;;1.52;;
22186;SDS011;11259;52.146;12.844;2023-07-30T03:02:45;1.45;;;1.35;;
22186;SDS011;11259;52.146;12.844;2023-07-30T03:05:12;2.28;;;1.75;;
22186;SDS011;11259;52.146;12.844;2023-07-30T03:07:37;1.25;;;1.15;;
22186;SDS011;11259;52.146;12.844;2023-07-30T03:10:03;1.90;;;1.70;;
22186;SDS011;11259;52.146;12.844;2023-07-30T03:12:28;2.22;;;2.03;;
22186;SDS011;11259;52.146;12.844;2023-07-30T03:14:53;1.88;;;1.60;;
22186;SDS011;11259;52.146;12.844;2023-07-30T03:17:19;1.75;;;1.50;;
22186;SDS011;11259;52.146;12.844;2023-07-30T03:19:44;1.58;;;1.30;;
22186;SDS011;11259;52.146;12.844;2023-07-30T03:22:11;1.75;;;1.60;;
22186;SDS011;11259;52.146;12.844;2023-07-30T03:24:36;2.13;;;1.83;;
22186;SDS011;11259;52.146;12.844;2023-07-30T03:27:01;1.77;;;1.40;;
22186;SDS011;11259;52.146;12.844;2023-07-30T03:29:27;1.35;;;1.25;;
22186;SDS011;11259;52.146;12.844;2023-07-30T03:31:52;1.50;;;1.40;;
22186;SDS011;11259;52.146;12.844;2023-07-30T03:34:17;1.30;;;1.20;;
22186;SDS011;11259;52.146;12.844;2023-07-30T03:36:43;1.75;;;1.45;;
22186;SDS011;11259;52.146;12.844;2023-07-30T03:39:09;1.30;;;1.20;;
22186;SDS011;11259;52.146;12.844;2023-07-30T03:41:35;1.33;;;1.23;;
22186;SDS011;11259;52.146;12.844;2023-07-30T03:44:00;1.55;;;1.20;;
22186;SDS011;11259;52.146;12.844;2023-07-30T03:46:25;1.40;;;1.30;;
22186;SDS011;11259;52.146;12.844;2023-07-30T03:48:51;1.30;;;1.20;;
22186;SDS011;11259;52.146;12.844;2023-07-30T03:51:16;3.20;;;2.00;;
22186;SDS011;11259;52.146;12.844;2023-07-30T03:53:41;1.33;;;1.23;;
22186;SDS011;11259;52.146;12.844;2023-07-30T03:56:08;1.77;;;1.67;;
22186;SDS011;11259;52.146;12.844;2023-07-30T03:58:33;1.38;;;1.27;;
22186;SDS011;11259;52.146;12.844;2023-07-30T04:00:59;2.35;;;2.03;;
22186;SDS011;11259;52.146;12.844;2023-07-30T04:03:24;1.88;;;1.73;;
22186;SDS011;11259;52.146;12.844;2023-07-30T04:05:49;1.40;;;1.30;;
22186;SDS011;11259;52.146;12.844;2023-07-30T04:08:15;1.75;;;1.63;;
22186;SDS011;11259;52.146;12.844;2023-07-30T04:10:40;1.58;;;1.38;;
22186;SDS011;11259;52.146;12.844;2023-07-30T04:13:07;1.45;;;1.35;;
22186;SDS011;11259;52.146;12.844;2023-07-30T04:15:32;1.38;;;1.27;;
22186;SDS011;11259;52.146;12.844;2023-07-30T04:17:58;1.52;;;1.40;;
22186;SDS011;11259;52.146;12.844;2023-07-30T04:20:23;1.90;;;1.50;;
22186;SDS011;11259;52.146;12.844;2023-07-30T04:22:48;1.48;;;1.30;;
22186;SDS011;11259;52.146;12.844;2023-07-30T04:25:14;1.88;;;1.60;;
22186;SDS011;11259;52.146;12.844;2023-07-30T04:27:39;1.58;;;1.48;;
22186;SDS011;11259;52.146;12.844;2023-07-30T04:30:06;3.95;;;2.08;;
22186;SDS011;11259;52.146;12.844;2023-07-30T04:32:32;1.70;;;1.60;;
22186;SDS011;11259;52.146;12.844;2023-07-30T04:34:58;3.25;;;2.15;;
22186;SDS011;11259;52.146;12.844;2023-07-30T04:37:23;1.63;;;1.52;;
22186;SDS011;11259;52.146;12.844;2023-07-30T04:39:49;1.42;;;1.33;;
22186;SDS011;11259;52.146;12.844;2023-07-30T04:42:14;1.60;;;1.50;;
22186;SDS011;11259;52.146;12.844;2023-07-30T04:44:39;1.45;;;1.35;;
22186;SDS011;11259;52.146;12.844;2023-07-30T04:47:06;1.60;;;1.50;;
22186;SDS011;11259;52.146;12.844;2023-07-30T04:49:31;1.30;;;1.20;;
22186;SDS011;11259;52.146;12.844;2023-07-30T04:51:57;1.58;;;1.45;;
22186;SDS011;11259;52.146;12.844;2023-07-30T04:54:22;1.80;;;1.52;;
22186;SDS011;11259;52.146;12.844;2023-07-30T04:56:48;1.50;;;1.30;;
22186;SDS011;11259;52.146;12.844;2023-07-30T04:59:13;1.55;;;1.35;;
22186;SDS011;11259;52.146;12.844;2023-07-30T05:01:38;1.33;;;1.23;;
22186;SDS011;11259;52.146;12.844;2023-07-30T05:04:05;2.00;;;1.67;;
22186;SDS011;11259;52.146;12.844;2023-07-30T05:06:30;1.63;;;1.33;;
22186;SDS011;11259;52.146;12.844;2023-07-30T05:08:55;7.82;;;1.90;;
22186;SDS011;11259;52.146;12.844;2023-07-30T05:11:21;2.55;;;1.52;;
22186;SDS011;11259;52.146;12.844;2023-07-30T05:13:46;1.48;;;1.10;;
22186;SDS011;11259;52.146;12.844;2023-07-30T05:16:11;1.17;;;1.10;;
22186;SDS011;11259;52.146;12.844;2023-07-30T05:18:37;2.08;;;1.33;;
22186;SDS011;11259;52.146;12.844;2023-07-30T05:21:03;2.03;;;1.23;;
22186;SDS011;11259;52.146;12.844;2023-07-30T05:23:29;1.65;;;1.48;;
22186;SDS011;11259;52.146;12.844;2023-07-30T05:25:54;2.53;;;1.50;;
22186;SDS011;11259;52.146;12.844;2023-07-30T05:28:19;1.58;;;1.38;;
22186;SDS011;11259;52.146;12.844;2023-07-30T05:30:45;1.20;;;1.02;;
22186;SDS011;11259;52.146;12.844;2023-07-30T05:33:10;1.17;;;1.08;;
22186;SDS011;11259;52.146;12.844;2023-07-30T05:35:35;1.60;;;1.38;;
22186;SDS011;11259;52.146;12.844;2023-07-30T05:38:02;2.13;;;1.05;;
22186;SDS011;11259;52.146;12.844;2023-07-30T05:40:27;1.85;;;1.33;;
22186;SDS011;11259;52.146;12.844;2023-07-30T05:42:53;1.55;;;1.27;;
22186;SDS011;11259;52.146;12.844;2023-07-30T05:45:18;1.73;;;1.38;;
22186;SDS011;11259;52.146;12.844;2023-07-30T05:47:43;1.30;;;1.20;;
22186;SDS011;11259;52.146;12.844;2023-07-30T05:50:09;1.23;;;1.10;;
22186;SDS011;11259;52.146;12.844;2023-07-30T05:52:34;0.80;;;0.80;;
22186;SDS011;11259;52.146;12.844;2023-07-30T05:55:01;1.10;;;0.88;;
22186;SDS011;11259;52.146;12.844;2023-07-30T05:57:26;1.48;;;1.13;;
22186;SDS011;11259;52.146;12.844;2023-07-30T05:59:52;1.33;;;1.02;;
22186;SDS011;11259;52.146;12.844;2023-07-30T06:02:17;1.30;;;1.17;;
22186;SDS011;11259;52.146;12.844;2023-07-30T06:04:43;1.35;;;1.23;;
22186;SDS011;11259;52.146;12.844;2023-07-30T06:07:08;1.10;;;1.00;;
22186;SDS011;11259;52.146;12.844;2023-07-30T06:09:33;1.85;;;1.20;;
22186;SDS011;11259;52.146;12.844;2023-07-30T06:12:00;1.02;;;1.00;;
22186;SDS011;11259;52.146;12.844;2023-07-30T06:14:25;1.20;;;1.10;;
22186;SDS011;11259;52.146;12.844;2023-07-30T06:16:51;0.80;;;0.80;;
22186;SDS011;11259;52.146;12.844;2023-07-30T06:19:17;0.75;;;0.75;;
22186;SDS011;11259;52.146;12.844;2023-07-30T06:21:42;1.40;;;0.80;;
22186;SDS011;11259;52.146;12.844;2023-07-30T06:24:07;1.23;;;1.00;;
22186;SDS011;11259;52.146;12.844;2023-07-30T06:26:33;0.85;;;0.85;;
22186;SDS011;11259;52.146;12.844;2023-07-30T06:28:59;1.02;;;0.93;;
22186;SDS011;11259;52.146;12.844;2023-07-30T06:31:25;1.02;;;0.85;;
22186;SDS011;11259;52.146;12.844;2023-07-30T06:33:50;1.00;;;0.90;;
22186;SDS011;11259;52.146;12.844;2023-07-30T06:36:15;1.15;;;0.93;;
22186;SDS011;11259;52.146;12.844;2023-07-30T06:38:41;0.90;;;0.80;;
22186;SDS011;11259;52.146;12.844;2023-07-30T06:41:06;0.70;;;0.70;;
22186;SDS011;11259;52.146;12.844;2023-07-30T06:43:31;0.80;;;0.80;;
22186;SDS011;11259;52.146;12.844;2023-07-30T06:45:58;0.60;;;0.60;;
22186;SDS011;11259;52.146;12.844;2023-07-30T06:48:23;1.05;;;0.77;;
22186;SDS011;11259;52.146;12.844;2023-07-30T06:50:49;0.85;;;0.73;;
22186;SDS011;11259;52.146;12.844;2023-07-30T06:53:14;0.85;;;0.85;;
22186;SDS011;11259;52.146;12.844;2023-07-30T06:55:39;0.70;;;0.70;;
22186;SDS011;11259;52.146;12.844;2023-07-30T06:58:05;1.00;;;0.70;;
22186;SDS011;11259;52.146;12.844;2023-07-30T07:00:30;0.68;;;0.68;;
22186;SDS011;11259;52.146;12.844;2023-07-30T07:02:57;0.82;;;0.63;;
22186;SDS011;11259;52.146;12.844;2023-07-30T07:05:22;0.80;;;0.60;;
22186;SDS011;11259;52.146;12.844;2023-07-30T07:07:48;0.80;;;0.80;;
22186;SDS011;11259;52.146;12.844;2023-07-30T07:10:13;1.17;;;0.88;;
22186;SDS011;11259;52.146;12.844;2023-07-30T07:12:38;0.90;;;0.90;;
22186;SDS011;11259;52.146;12.844;2023-07-30T07:15:04;0.82;;;0.73;;
22186;SDS011;11259;52.146;12.844;2023-07-30T07:17:30;1.25;;;1.00;;
22186;SDS011;11259;52.146;12.844;2023-07-30T07:19:57;0.82;;;0.80;;
22186;SDS011;11259;52.146;12.844;2023-07-30T07:22:23;0.98;;;0.90;;
22186;SDS011;11259;52.146;12.844;2023-07-30T07:24:48;0.80;;;0.80;;
22186;SDS011;11259;52.146;12.844;2023-07-30T07:27:13;0.82;;;0.80;;
22186;SDS011;11259;52.146;12.844;2023-07-30T07:29:39;1.25;;;0.80;;
22186;SDS011;11259;52.146;12.844;2023-07-30T07:32:04;0.50;;;0.50;;
22186;SDS011;11259;52.146;12.844;2023-07-30T07:34:30;1.25;;;0.90;;
22186;SDS011;11259;52.146;12.844;2023-07-30T07:36:57;0.82;;;0.63;;
22186;SDS011;11259;52.146;12.844;2023-07-30T07:39:22;0.60;;;0.60;;
22186;SDS011;11259;52.146;12.844;2023-07-30T07:41:48;0.50;;;0.43;;
22186;SDS011;11259;52.146;12.844;2023-07-30T07:44:13;0.57;;;0.57;;
22186;SDS011;11259;52.146;12.844;2023-07-30T07:46:38;0.85;;;0.68;;
22186;SDS011;11259;52.146;12.844;2023-07-30T07:49:04;0.93;;;0.77;;
22186;SDS011;11259;52.146;12.844;2023-07-30T07:51:29;1.63;;;1.30;;
22186;SDS011;11259;52.146;12.844;2023-07-30T07:53:56;0.95;;;0.70;;
22186;SDS011;11259;52.146;12.844;2023-07-30T07:56:21;0.80;;;0.80;;
22186;SDS011;11259;52.146;12.844;2023-07-30T07:58:46;0.70;;;0.70;;
22186;SDS011;11259;52.146;12.844;2023-07-30T08:01:12;0.73;;;0.73;;
22186;SDS011;11259;52.146;12.844;2023-07-30T08:03:37;0.60;;;0.60;;
22186;SDS011;11259;52.146;12.844;2023-07-30T08:06:02;0.82;;;0.68;;
22186;SDS011;11259;52.146;12.844;2023-07-30T08:08:28;0.85;;;0.85;;
22186;SDS011;11259;52.146;12.844;2023-07-30T08:10:54;0.60;;;0.60;;
22186;SDS011;11259;52.146;12.844;2023-07-30T08:13:20;0.95;;;0.80;;
22186;SDS011;11259;52.146;12.844;2023-07-30T08:15:45;0.85;;;0.82;;
22186;SDS011;11259;52.146;12.844;2023-07-30T08:18:11;0.77;;;0.70;;
22186;SDS011;11259;52.146;12.844;2023-07-30T08:20:36;1.30;;;1.00;;
22186;SDS011;11259;52.146;12.844;2023-07-30T08:23:01;0.90;;;0.85;;
22186;SDS011;11259;52.146;12.844;2023-07-30T08:25:27;0.60;;;0.60;;
22186;SDS011;11259;52.146;12.844;2023-07-30T08:27:53;0.75;;;0.75;;
22186;SDS011;11259;52.146;12.844;2023-07-30T08:30:19;1.42;;;1.15;;
22186;SDS011;11259;52.146;12.844;2023-07-30T08:32:44;1.00;;;0.90;;
22186;SDS011;11259;52.146;12.844;2023-07-30T08:35:09;0.60;;;0.60;;
22186;SDS011;11259;52.146;12.844;2023-07-30T08:37:35;0.60;;;0.60;;
22186;SDS011;11259;52.146;12.844;2023-07-30T08:40:00;1.20;;;0.60;;
22186;SDS011;11259;52.146;12.844;2023-07-30T08:42:25;1.27;;;1.05;;
22186;SDS011;11259;52.146;12.844;2023-07-30T08:44:52;0.85;;;0.85;;
22186;SDS011;11259;52.146;12.844;2023-07-30T08:47:17;0.98;;;0.90;;
22186;SDS011;11259;52.146;12.844;2023-07-30T08:49:43;0.88;;;0.88;;
22186;SDS011;11259;52.146;12.844;2023-07-30T08:52:09;1.30;;;1.00;;
22186;SDS011;11259;52.146;12.844;2023-07-30T08:54:34;0.77;;;0.77;;
22186;SDS011;11259;52.146;12.844;2023-07-30T08:57:01;1.35;;;0.77;;
22186;SDS011;11259;52.146;12.844;2023-07-30T08:59:27;0.85;;;0.82;;
22186;SDS011;11259;52.146;12.844;2023-07-30T09:01:58;0.98;;;0.90;;
22186;SDS011;11259;52.146;12.844;2023-07-30T09:04:24;0.73;;;0.70;;
22186;SDS011;11259;52.146;12.844;2023-07-30T09:06:49;0.77;;;0.77;;
22186;SDS011;11259;52.146;12.844;2023-07-30T09:09:14;1.45;;;0.73;;
22186;SDS011;11259;52.146;12.844;2023-07-30T09:11:40;0.82;;;0.75;;
22186;SDS011;11259;52.146;12.844;2023-07-30T09:14:05;1.83;;;0.77;;
22186;SDS011;11259;52.146;12.844;2023-07-30T09:16:31;1.00;;;0.95;;
22186;SDS011;11259;52.146;12.844;2023-07-30T09:18:57;0.55;;;0.52;;
22186;SDS011;11259;52.146;12.844;2023-07-30T09:21:29;0.73;;;0.73;;
22186;SDS011;11259;52.146;12.844;2023-07-30T09:23:54;0.60;;;0.60;;
22186;SDS011;11259;52.146;12.844;2023-07-30T09:26:20;1.48;;;1.15;;
22186;SDS011;11259;52.146;12.844;2023-07-30T09:28:45;0.55;;;0.52;;
22186;SDS011;11259;52.146;12.844;2023-07-30T09:31:10;1.00;;;0.90;;
22186;SDS011;11259;52.146;12.844;2023-07-30T09:33:40;0.80;;;0.70;;
22186;SDS011;11259;52.146;12.844;2023-07-30T09:36:08;0.73;;;0.73;;
22186;SDS011;11259;52.146;12.844;2023-07-30T09:38:37;0.77;;;0.60;;
22186;SDS011;11259;52.146;12.844;2023-07-30T09:41:03;3.47;;;0.80;;
22186;SDS011;11259;52.146;12.844;2023-07-30T09:43:29;1.15;;;1.05;;
22186;SDS011;11259;52.146;12.844;2023-07-30T09:45:54;0.60;;;0.60;;
22186;SDS011;11259;52.146;12.844;2023-07-30T09:48:26;1.10;;;0.98;;
22186;SDS011;11259;52.146;12.844;2023-07-30T09:50:51;0.77;;;0.77;;
22186;SDS011;11259;52.146;12.844;2023-07-30T09:53:19;0.80;;;0.80;;
22186;SDS011;11259;52.146;12.844;2023-07-30T09:55:45;0.93;;;0.80;;
22186;SDS011;11259;52.146;12.844;2023-07-30T09:58:10;0.82;;;0.80;;
22186;SDS011;11259;52.146;12.844;2023-07-30T10:00:35;0.80;;;0.80;;
22186;SDS011;11259;52.146;12.844;2023-07-30T10:03:01;0.50;;;0.50;;
22186;SDS011;11259;52.146;12.844;2023-07-30T10:05:28;0.73;;;0.70;;
22186;SDS011;11259;52.146;12.844;2023-07-30T10:08:07;2.80;;;1.08;;
22186;SDS011;11259;52.146;12.844;2023-07-30T10:10:35;5.88;;;1.15;;
22186;SDS011;11259;52.146;12.844;2023-07-30T10:13:05;1.02;;;0.93;;
22186;SDS011;11259;52.146;12.844;2023-07-30T10:15:33;3.45;;;1.00;;
22186;SDS011;11259;52.146;12.844;2023-07-30T10:17:59;0.75;;;0.75;;
22186;SDS011;11259;52.146;12.844;2023-07-30T10:20:25;1.00;;;0.93;;
22186;SDS011;11259;52.146;12.844;2023-07-30T10:22:51;0.70;;;0.70;;
22186;SDS011;11259;52.146;12.844;2023-07-30T10:25:17;0.50;;;0.50;;
22186;SDS011;11259;52.146;12.844;2023-07-30T10:27:48;1.55;;;0.93;;
22186;SDS011;11259;52.146;12.844;2023-07-30T10:30:15;1.10;;;0.88;;
22186;SDS011;11259;52.146;12.844;2023-07-30T10:32:41;1.75;;;0.93;;
22186;SDS011;11259;52.146;12.844;2023-07-30T10:35:07;0.80;;;0.80;;
22186;SDS011;11259;52.146;12.844;2023-07-30T10:37:32;0.77;;;0.65;;
22186;SDS011;11259;52.146;12.844;2023-07-30T10:39:58;1.30;;;1.13;;
22186;SDS011;11259;52.146;12.844;2023-07-30T10:42:23;0.52;;;0.52;;
22186;SDS011;11259;52.146;12.844;2023-07-30T10:44:50;1.23;;;0.80;;
22186;SDS011;11259;52.146;12.844;2023-07-30T10:47:15;1.35;;;1.00;;
22186;SDS011;11259;52.146;12.844;2023-07-30T10:49:41;0.73;;;0.73;;
22186;SDS011;11259;52.146;12.844;2023-07-30T10:52:06;0.65;;;0.63;;
22186;SDS011;11259;52.146;12.844;2023-07-30T10:54:32;1.88;;;1.40;;
22186;SDS011;11259;52.146;12.844;2023-07-30T10:56:58;1.02;;;0.90;;
22186;SDS011;11259;52.146;12.844;2023-07-30T10:59:24;0.93;;;0.93;;
22186;SDS011;11259;52.146;12.844;2023-07-30T11:01:51;0.95;;;0.85;;
22186;SDS011;11259;52.146;12.844;2023-07-30T11:04:18;1.30;;;1.17;;
22186;SDS011;11259;52.146;12.844;2023-07-30T11:06:44;0.85;;;0.85;;
22186;SDS011;11259;52.146;12.844;2023-07-30T11:09:17;1.08;;;0.98;;
22186;SDS011;11259;52.146;12.844;2023-07-30T11:11:43;1.50;;;1.40;;
22186;SDS011;11259;52.146;12.844;2023-07-30T11:14:08;1.08;;;0.88;;
22186;SDS011;11259;52.146;12.844;2023-07-30T11:16:40;0.70;;;0.70;;
22186;SDS011;11259;52.146;12.844;2023-07-30T11:19:13;1.17;;;0.98;;
22186;SDS011;11259;52.146;12.844;2023-07-30T11:21:43;1.95;;;0.98;;
22186;SDS011;11259;52.146;12.844;2023-07-30T11:24:09;1.23;;;1.05;;
22186;SDS011;11259;52.146;12.844;2023-07-30T11:26:34;0.80;;;0.80;;
22186;SDS011;11259;52.146;12.844;2023-07-30T11:29:00;1.65;;;1.13;;
22186;SDS011;11259;52.146;12.844;2023-07-30T11:31:25;2.10;;;1.20;;
22186;SDS011;11259;52.146;12.844;2023-07-30T11:33:50;0.73;;;0.70;;
22186;SDS011;11259;52.146;12.844;2023-07-30T11:36:17;0.80;;;0.80;;
22186;SDS011;11259;52.146;12.844;2023-07-30T11:38:44;1.77;;;0.70;;
22186;SDS011;11259;52.146;12.844;2023-07-30T11:41:10;1.73;;;0.82;;
22186;SDS011;11259;52.146;12.844;2023-07-30T11:43:36;0.77;;;0.73;;
22186;SDS011;11259;52.146;12.844;2023-07-30T11:46:06;2.38;;;1.13;;
22186;SDS011;11259;52.146;12.844;2023-07-30T11:48:32;1.13;;;0.90;;
22186;SDS011;11259;52.146;12.844;2023-07-30T11:50:57;1.83;;;1.23;;
22186;SDS011;11259;52.146;12.844;2023-07-30T11:53:29;0.70;;;0.70;;
22186;SDS011;11259;52.146;12.844;2023-07-30T11:56:12;1.40;;;0.93;;
22186;SDS011;11259;52.146;12.844;2023-07-30T11:58:41;0.80;;;0.80;;
22186;SDS011;11259;52.146;12.844;2023-07-30T12:01:06;1.65;;;1.08;;
22186;SDS011;11259;52.146;12.844;2023-07-30T12:03:31;0.60;;;0.60;;
22186;SDS011;11259;52.146;12.844;2023-07-30T12:05:57;1.20;;;0.88;;
22186;SDS011;11259;52.146;12.844;2023-07-30T12:08:25;1.67;;;1.05;;
22186;SDS011;11259;52.146;12.844;2023-07-30T12:10:51;6.25;;;1.30;;
22186;SDS011;11259;52.146;12.844;2023-07-30T12:13:17;0.98;;;0.50;;
22186;SDS011;11259;52.146;12.844;2023-07-30T12:15:44;1.13;;;1.02;;
22186;SDS011;11259;52.146;12.844;2023-07-30T12:18:09;1.05;;;0.82;;
22186;SDS011;11259;52.146;12.844;2023-07-30T12:20:34;0.57;;;0.57;;
22186;SDS011;11259;52.146;12.844;2023-07-30T12:23:01;0.60;;;0.60;;
22186;SDS011;11259;52.146;12.844;2023-07-30T12:25:27;2.03;;;1.10;;
22186;SDS011;11259;52.146;12.844;2023-07-30T12:27:53;1.05;;;0.70;;
22186;SDS011;11259;52.146;12.844;2023-07-30T12:30:18;0.70;;;0.68;;
22186;SDS011;11259;52.146;12.844;2023-07-30T12:32:43;1.15;;;1.05;;
22186;SDS011;11259;52.146;12.844;2023-07-30T12:35:09;1.30;;;0.73;;
22186;SDS011;11259;52.146;12.844;2023-07-30T12:37:34;0.50;;;0.50;;
22186;SDS011;11259;52.146;12.844;2023-07-30T12:39:59;0.80;;;0.80;;
22186;SDS011;11259;52.146;12.844;2023-07-30T12:42:26;4.30;;;1.40;;
22186;SDS011;11259;52.146;12.844;2023-07-30T12:44:51;1.13;;;1.02;;
22186;SDS011;11259;52.146;12.844;2023-07-30T12:47:17;0.80;;;0.80;;
22186;SDS011;11259;52.146;12.844;2023-07-30T12:49:42;0.95;;;0.90;;
22186;SDS011;11259;52.146;12.844;2023-07-30T12:52:07;1.20;;;1.10;;
22186;SDS011;11259;52.146;12.844;2023-07-30T12:54:33;0.85;;;0.82;;
22186;SDS011;11259;52.146;12.844;2023-07-30T12:56:58;1.05;;;0.80;;
22186;SDS011;11259;52.146;12.844;2023-07-30T12:59:25;1.08;;;0.90;;
22186;SDS011;11259;52.146;12.844;2023-07-30T13:01:50;2.10;;;0.60;;
22186;SDS011;11259;52.146;12.844;2023-07-30T13:04:15;1.95;;;1.05;;
22186;SDS011;11259;52.146;12.844;2023-07-30T13:06:40;0.60;;;0.60;;
22186;SDS011;11259;52.146;12.844;2023-07-30T13:09:06;0.90;;;0.68;;
22186;SDS011;11259;52.146;12.844;2023-07-30T13:11:31;1.67;;;1.00;;
22186;SDS011;11259;52.146;12.844;2023-07-30T13:13:56;0.60;;;0.57;;
22186;SDS011;11259;52.146;12.844;2023-07-30T13:16:23;0.68;;;0.68;;
22186;SDS011;11259;52.146;12.844;2023-07-30T13:18:48;0.52;;;0.52;;
22186;SDS011;11259;52.146;12.844;2023-07-30T13:21:14;0.40;;;0.40;;
22186;SDS011;11259;52.146;12.844;2023-07-30T13:23:39;0.40;;;0.40;;
22186;SDS011;11259;52.146;12.844;2023-07-30T13:26:04;0.50;;;0.50;;
22186;SDS011;11259;52.146;12.844;2023-07-30T13:28:30;0.50;;;0.50;;
22186;SDS011;11259;52.146;12.844;2023-07-30T13:30:55;0.40;;;0.40;;
22186;SDS011;11259;52.146;12.844;2023-07-30T13:33:22;0.40;;;0.40;;
22186;SDS011;11259;52.146;12.844;2023-07-30T13:35:47;0.43;;;0.43;;
22186;SDS011;11259;52.146;12.844;2023-07-30T13:38:13;0.50;;;0.50;;
22186;SDS011;11259;52.146;12.844;2023-07-30T13:40:38;0.43;;;0.43;;
22186;SDS011;11259;52.146;12.844;2023-07-30T13:43:03;0.50;;;0.45;;
22186;SDS011;11259;52.146;12.844;2023-07-30T13:45:29;0.55;;;0.52;;
22186;SDS011;11259;52.146;12.844;2023-07-30T13:47:54;0.40;;;0.40;;
22186;SDS011;11259;52.146;12.844;2023-07-30T13:50:21;1.13;;;0.73;;
22186;SDS011;11259;52.146;12.844;2023-07-30T13:52:46;0.40;;;0.40;;
22186;SDS011;11259;52.146;12.844;2023-07-30T13:55:11;0.82;;;0.40;;
22186;SDS011;11259;52.146;12.844;2023-07-30T13:57:37;0.70;;;0.70;;
22186;SDS011;11259;52.146;12.844;2023-07-30T14:00:02;0.47;;;0.47;;
22186;SDS011;11259;52.146;12.844;2023-07-30T14:02:28;0.50;;;0.50;;
22186;SDS011;11259;52.146;12.844;2023-07-30T14:04:54;0.40;;;0.40;;
22186;SDS011;11259;52.146;12.844;2023-07-30T14:07:20;0.50;;;0.50;;
22186;SDS011;11259;52.146;12.844;2023-07-30T14:09:46;0.50;;;0.50;;
22186;SDS011;11259;52.146;12.844;2023-07-30T14:12:12;0.40;;;0.40;;
22186;SDS011;11259;52.146;12.844;2023-07-30T14:14:37;0.40;;;0.40;;
22186;SDS011;11259;52.146;12.844;2023-07-30T14:17:03;0.45;;;0.45;;
22186;SDS011;11259;52.146;12.844;2023-07-30T14:19:28;0.60;;;0.60;;
22186;SDS011;11259;52.146;12.844;2023-07-30T14:21:54;1.38;;;0.82;;
22186;SDS011;11259;52.146;12.844;2023-07-30T14:24:20;2.47;;;0.88;;